sensor_id;sensor_type;location;lat;lon;timestamp;P1;durP1;ratioP1;P2;durP2;ratioP2
75054;SDS011;63636;44.746;10.488;2023-04-06T00:02:39;9.85;;;4.75;;
75054;SDS011;63636;44.746;10.488;2023-04-06T00:05:05;10.55;;;4.60;;
75054;SDS011;63636;44.746;10.488;2023-04-06T00:07:31;8.43;;;4.40;;
75054;SDS011;63636;44.746;10.488;2023-04-06T00:09:58;7.20;;;3.95;;
75054;SDS011;63636;44.746;10.488;2023-04-06T00:12:24;10.85;;;4.03;;
75054;SDS011;63636;44.746;10.488;2023-04-06T00:14:49;8.82;;;3.83;;
75054;SDS011;63636;44.746;10.488;2023-04-06T00:17:21;10.25;;;4.43;;
75054;SDS011;63636;44.746;10.488;2023-04-06T00:19:47;8.85;;;4.10;;
75054;SDS011;63636;44.746;10.488;2023-04-06T00:22:17;7.93;;;3.97;;
75054;SDS011;63636;44.746;10.488;2023-04-06T00:24:43;7.10;;;4.00;;
75054;SDS011;63636;44.746;10.488;2023-04-06T00:27:08;8.70;;;3.72;;
75054;SDS011;63636;44.746;10.488;2023-04-06T00:29:34;8.05;;;3.97;;
75054;SDS011;63636;44.746;10.488;2023-04-06T00:32:00;8.93;;;4.20;;
75054;SDS011;63636;44.746;10.488;2023-04-06T00:34:28;7.85;;;4.18;;
75054;SDS011;63636;44.746;10.488;2023-04-06T00:36:54;8.50;;;3.92;;
75054;SDS011;63636;44.746;10.488;2023-04-06T00:39:20;7.95;;;3.80;;
75054;SDS011;63636;44.746;10.488;2023-04-06T00:41:46;8.00;;;3.95;;
75054;SDS011;63636;44.746;10.488;2023-04-06T00:44:12;8.25;;;4.28;;
75054;SDS011;63636;44.746;10.488;2023-04-06T00:46:37;9.50;;;3.97;;
75054;SDS011;63636;44.746;10.488;2023-04-06T00:49:03;8.38;;;4.07;;
75054;SDS011;63636;44.746;10.488;2023-04-06T00:51:29;9.98;;;4.07;;
75054;SDS011;63636;44.746;10.488;2023-04-06T00:53:54;9.13;;;4.35;;
75054;SDS011;63636;44.746;10.488;2023-04-06T00:56:21;7.80;;;3.92;;
75054;SDS011;63636;44.746;10.488;2023-04-06T00:58:51;8.93;;;4.30;;
75054;SDS011;63636;44.746;10.488;2023-04-06T01:01:18;8.05;;;4.07;;
75054;SDS011;63636;44.746;10.488;2023-04-06T01:04:12;8.68;;;4.20;;
75054;SDS011;63636;44.746;10.488;2023-04-06T01:06:41;8.30;;;4.25;;
75054;SDS011;63636;44.746;10.488;2023-04-06T01:09:07;7.40;;;3.90;;
75054;SDS011;63636;44.746;10.488;2023-04-06T01:11:33;7.55;;;4.35;;
75054;SDS011;63636;44.746;10.488;2023-04-06T01:14:01;8.38;;;4.50;;
75054;SDS011;63636;44.746;10.488;2023-04-06T01:16:35;6.95;;;3.78;;
75054;SDS011;63636;44.746;10.488;2023-04-06T01:19:10;7.80;;;4.35;;
75054;SDS011;63636;44.746;10.488;2023-04-06T01:21:38;8.52;;;4.40;;
75054;SDS011;63636;44.746;10.488;2023-04-06T01:24:13;8.52;;;4.13;;
75054;SDS011;63636;44.746;10.488;2023-04-06T01:27:02;9.50;;;4.38;;
75054;SDS011;63636;44.746;10.488;2023-04-06T01:29:37;7.88;;;4.03;;
75054;SDS011;63636;44.746;10.488;2023-04-06T01:32:25;8.02;;;3.60;;
75054;SDS011;63636;44.746;10.488;2023-04-06T01:34:54;8.65;;;4.22;;
75054;SDS011;63636;44.746;10.488;2023-04-06T01:37:20;7.38;;;3.90;;
75054;SDS011;63636;44.746;10.488;2023-04-06T01:39:46;8.70;;;4.20;;
75054;SDS011;63636;44.746;10.488;2023-04-06T01:42:19;9.75;;;4.20;;
75054;SDS011;63636;44.746;10.488;2023-04-06T01:44:47;9.52;;;4.10;;
75054;SDS011;63636;44.746;10.488;2023-04-06T01:47:14;9.35;;;4.43;;
75054;SDS011;63636;44.746;10.488;2023-04-06T01:49:40;7.78;;;4.20;;
75054;SDS011;63636;44.746;10.488;2023-04-06T01:52:06;7.78;;;4.30;;
75054;SDS011;63636;44.746;10.488;2023-04-06T01:54:33;8.88;;;4.47;;
75054;SDS011;63636;44.746;10.488;2023-04-06T01:57:12;9.82;;;4.55;;
75054;SDS011;63636;44.746;10.488;2023-04-06T01:59:52;7.70;;;4.05;;
75054;SDS011;63636;44.746;10.488;2023-04-06T02:02:29;8.10;;;4.57;;
75054;SDS011;63636;44.746;10.488;2023-04-06T02:05:08;8.88;;;4.32;;
75054;SDS011;63636;44.746;10.488;2023-04-06T02:07:38;8.77;;;4.53;;
75054;SDS011;63636;44.746;10.488;2023-04-06T02:10:13;8.38;;;4.50;;
75054;SDS011;63636;44.746;10.488;2023-04-06T02:13:09;7.70;;;3.85;;
75054;SDS011;63636;44.746;10.488;2023-04-06T02:15:38;10.52;;;4.30;;
75054;SDS011;63636;44.746;10.488;2023-04-06T02:18:05;6.68;;;3.88;;
75054;SDS011;63636;44.746;10.488;2023-04-06T02:20:52;7.95;;;4.30;;
75054;SDS011;63636;44.746;10.488;2023-04-06T02:23:18;8.05;;;4.32;;
75054;SDS011;63636;44.746;10.488;2023-04-06T02:25:43;9.63;;;4.45;;
75054;SDS011;63636;44.746;10.488;2023-04-06T02:28:09;8.55;;;4.47;;
75054;SDS011;63636;44.746;10.488;2023-04-06T02:30:35;9.23;;;4.32;;
75054;SDS011;63636;44.746;10.488;2023-04-06T02:33:01;9.07;;;4.70;;
75054;SDS011;63636;44.746;10.488;2023-04-06T02:35:30;9.88;;;5.07;;
75054;SDS011;63636;44.746;10.488;2023-04-06T02:37:56;14.05;;;6.25;;
75054;SDS011;63636;44.746;10.488;2023-04-06T02:40:22;13.20;;;6.18;;
75054;SDS011;63636;44.746;10.488;2023-04-06T02:42:48;10.70;;;5.32;;
75054;SDS011;63636;44.746;10.488;2023-04-06T02:45:17;9.77;;;5.20;;
75054;SDS011;63636;44.746;10.488;2023-04-06T02:47:46;10.00;;;5.38;;
75054;SDS011;63636;44.746;10.488;2023-04-06T02:50:14;11.77;;;5.28;;
75054;SDS011;63636;44.746;10.488;2023-04-06T02:52:47;11.13;;;5.55;;
75054;SDS011;63636;44.746;10.488;2023-04-06T02:55:22;9.82;;;5.30;;
75054;SDS011;63636;44.746;10.488;2023-04-06T02:57:49;10.80;;;5.53;;
75054;SDS011;63636;44.746;10.488;2023-04-06T03:00:18;11.63;;;5.32;;
75054;SDS011;63636;44.746;10.488;2023-04-06T03:02:44;10.32;;;5.05;;
75054;SDS011;63636;44.746;10.488;2023-04-06T03:05:17;9.57;;;4.90;;
75054;SDS011;63636;44.746;10.488;2023-04-06T03:07:44;9.68;;;4.82;;
75054;SDS011;63636;44.746;10.488;2023-04-06T03:10:21;9.35;;;4.50;;
75054;SDS011;63636;44.746;10.488;2023-04-06T03:12:48;9.65;;;4.57;;
75054;SDS011;63636;44.746;10.488;2023-04-06T03:15:16;8.75;;;4.65;;
75054;SDS011;63636;44.746;10.488;2023-04-06T03:17:50;7.90;;;4.30;;
75054;SDS011;63636;44.746;10.488;2023-04-06T03:20:33;8.43;;;4.22;;
75054;SDS011;63636;44.746;10.488;2023-04-06T03:22:59;8.82;;;4.50;;
75054;SDS011;63636;44.746;10.488;2023-04-06T03:25:29;7.85;;;3.70;;
75054;SDS011;63636;44.746;10.488;2023-04-06T03:28:01;7.03;;;3.40;;
75054;SDS011;63636;44.746;10.488;2023-04-06T03:30:27;6.80;;;3.50;;
75054;SDS011;63636;44.746;10.488;2023-04-06T03:32:52;7.20;;;3.33;;
75054;SDS011;63636;44.746;10.488;2023-04-06T03:35:21;6.80;;;3.17;;
75054;SDS011;63636;44.746;10.488;2023-04-06T03:37:47;7.07;;;3.50;;
75054;SDS011;63636;44.746;10.488;2023-04-06T03:40:13;6.13;;;3.20;;
75054;SDS011;63636;44.746;10.488;2023-04-06T03:42:38;6.90;;;3.25;;
75054;SDS011;63636;44.746;10.488;2023-04-06T03:45:10;7.93;;;3.40;;
75054;SDS011;63636;44.746;10.488;2023-04-06T03:47:42;5.30;;;2.90;;
75054;SDS011;63636;44.746;10.488;2023-04-06T03:50:14;6.22;;;3.28;;
75054;SDS011;63636;44.746;10.488;2023-04-06T03:52:53;6.20;;;3.50;;
75054;SDS011;63636;44.746;10.488;2023-04-06T03:55:27;6.55;;;3.42;;
75054;SDS011;63636;44.746;10.488;2023-04-06T03:57:57;7.45;;;3.83;;
75054;SDS011;63636;44.746;10.488;2023-04-06T04:00:28;5.40;;;3.05;;
75054;SDS011;63636;44.746;10.488;2023-04-06T04:02:58;8.88;;;3.60;;
75054;SDS011;63636;44.746;10.488;2023-04-06T04:08:10;7.95;;;3.40;;
75054;SDS011;63636;44.746;10.488;2023-04-06T04:10:36;6.68;;;3.30;;
75054;SDS011;63636;44.746;10.488;2023-04-06T04:13:02;8.20;;;3.72;;
75054;SDS011;63636;44.746;10.488;2023-04-06T04:15:34;7.80;;;3.60;;
75054;SDS011;63636;44.746;10.488;2023-04-06T04:17:59;6.50;;;3.17;;
75054;SDS011;63636;44.746;10.488;2023-04-06T04:20:28;6.13;;;3.00;;
75054;SDS011;63636;44.746;10.488;2023-04-06T04:22:55;8.15;;;3.40;;
75054;SDS011;63636;44.746;10.488;2023-04-06T04:25:23;6.07;;;2.83;;
75054;SDS011;63636;44.746;10.488;2023-04-06T04:30:45;5.18;;;2.75;;
75054;SDS011;63636;44.746;10.488;2023-04-06T04:33:18;6.00;;;2.90;;
75054;SDS011;63636;44.746;10.488;2023-04-06T04:39:29;6.22;;;3.05;;
75054;SDS011;63636;44.746;10.488;2023-04-06T04:42:01;5.97;;;3.35;;
75054;SDS011;63636;44.746;10.488;2023-04-06T04:44:28;7.35;;;3.30;;
75054;SDS011;63636;44.746;10.488;2023-04-06T04:46:54;7.30;;;3.72;;
75054;SDS011;63636;44.746;10.488;2023-04-06T04:49:27;7.72;;;3.42;;
75054;SDS011;63636;44.746;10.488;2023-04-06T04:51:54;8.10;;;3.83;;
75054;SDS011;63636;44.746;10.488;2023-04-06T04:54:30;9.13;;;3.60;;
75054;SDS011;63636;44.746;10.488;2023-04-06T04:57:17;8.38;;;3.80;;
75054;SDS011;63636;44.746;10.488;2023-04-06T04:59:43;8.43;;;3.72;;
75054;SDS011;63636;44.746;10.488;2023-04-06T05:08:51;7.68;;;3.40;;
75054;SDS011;63636;44.746;10.488;2023-04-06T05:11:16;7.88;;;3.40;;
75054;SDS011;63636;44.746;10.488;2023-04-06T05:13:47;7.13;;;3.20;;
75054;SDS011;63636;44.746;10.488;2023-04-06T05:16:17;7.00;;;3.53;;
75054;SDS011;63636;44.746;10.488;2023-04-06T05:18:43;7.95;;;3.45;;
75054;SDS011;63636;44.746;10.488;2023-04-06T05:21:10;7.82;;;3.80;;
75054;SDS011;63636;44.746;10.488;2023-04-06T05:23:47;7.68;;;3.30;;
75054;SDS011;63636;44.746;10.488;2023-04-06T05:26:13;9.00;;;4.10;;
75054;SDS011;63636;44.746;10.488;2023-04-06T05:28:39;8.20;;;4.15;;
75054;SDS011;63636;44.746;10.488;2023-04-06T05:31:05;6.55;;;3.60;;
75054;SDS011;63636;44.746;10.488;2023-04-06T05:33:38;8.55;;;3.65;;
75054;SDS011;63636;44.746;10.488;2023-04-06T05:36:10;10.77;;;3.60;;
75054;SDS011;63636;44.746;10.488;2023-04-06T05:38:40;7.65;;;3.35;;
75054;SDS011;63636;44.746;10.488;2023-04-06T05:41:19;8.50;;;3.55;;
75054;SDS011;63636;44.746;10.488;2023-04-06T05:43:45;7.75;;;3.58;;
75054;SDS011;63636;44.746;10.488;2023-04-06T05:46:11;7.05;;;3.25;;
75054;SDS011;63636;44.746;10.488;2023-04-06T05:48:37;7.10;;;3.58;;
75054;SDS011;63636;44.746;10.488;2023-04-06T05:51:03;8.60;;;3.60;;
75054;SDS011;63636;44.746;10.488;2023-04-06T05:53:39;8.13;;;3.72;;
75054;SDS011;63636;44.746;10.488;2023-04-06T05:56:05;10.65;;;4.00;;
75054;SDS011;63636;44.746;10.488;2023-04-06T05:58:38;7.63;;;3.47;;
75054;SDS011;63636;44.746;10.488;2023-04-06T06:01:05;6.70;;;3.65;;
75054;SDS011;63636;44.746;10.488;2023-04-06T06:03:41;6.82;;;3.50;;
75054;SDS011;63636;44.746;10.488;2023-04-06T06:06:06;9.55;;;3.65;;
75054;SDS011;63636;44.746;10.488;2023-04-06T06:08:45;11.70;;;3.95;;
75054;SDS011;63636;44.746;10.488;2023-04-06T06:11:14;9.13;;;3.97;;
75054;SDS011;63636;44.746;10.488;2023-04-06T06:13:40;9.05;;;3.80;;
75054;SDS011;63636;44.746;10.488;2023-04-06T06:16:09;8.98;;;3.50;;
75054;SDS011;63636;44.746;10.488;2023-04-06T06:18:41;6.95;;;3.15;;
75054;SDS011;63636;44.746;10.488;2023-04-06T06:21:07;6.95;;;3.30;;
75054;SDS011;63636;44.746;10.488;2023-04-06T06:23:33;7.93;;;3.42;;
75054;SDS011;63636;44.746;10.488;2023-04-06T06:25:58;6.30;;;3.25;;
75054;SDS011;63636;44.746;10.488;2023-04-06T06:28:25;7.60;;;3.08;;
75054;SDS011;63636;44.746;10.488;2023-04-06T06:30:52;7.88;;;2.95;;
75054;SDS011;63636;44.746;10.488;2023-04-06T06:33:21;11.65;;;3.85;;
75054;SDS011;63636;44.746;10.488;2023-04-06T06:35:49;11.00;;;2.72;;
75054;SDS011;63636;44.746;10.488;2023-04-06T06:38:15;6.47;;;3.13;;
75054;SDS011;63636;44.746;10.488;2023-04-06T06:40:41;6.85;;;2.90;;
75054;SDS011;63636;44.746;10.488;2023-04-06T06:43:07;9.68;;;3.10;;
75054;SDS011;63636;44.746;10.488;2023-04-06T06:45:44;6.75;;;3.03;;
75054;SDS011;63636;44.746;10.488;2023-04-06T06:48:12;8.68;;;2.80;;
75054;SDS011;63636;44.746;10.488;2023-04-06T06:50:39;8.27;;;2.80;;
75054;SDS011;63636;44.746;10.488;2023-04-06T06:53:04;5.82;;;2.78;;
75054;SDS011;63636;44.746;10.488;2023-04-06T06:55:31;7.70;;;2.83;;
75054;SDS011;63636;44.746;10.488;2023-04-06T06:57:56;7.28;;;2.63;;
75054;SDS011;63636;44.746;10.488;2023-04-06T07:00:22;7.45;;;2.70;;
75054;SDS011;63636;44.746;10.488;2023-04-06T07:02:49;7.57;;;3.00;;
75054;SDS011;63636;44.746;10.488;2023-04-06T07:05:16;6.85;;;2.90;;
75054;SDS011;63636;44.746;10.488;2023-04-06T07:07:42;9.32;;;3.08;;
75054;SDS011;63636;44.746;10.488;2023-04-06T07:10:09;10.45;;;2.90;;
75054;SDS011;63636;44.746;10.488;2023-04-06T07:12:37;6.18;;;2.95;;
75054;SDS011;63636;44.746;10.488;2023-04-06T07:15:03;7.22;;;3.10;;
75054;SDS011;63636;44.746;10.488;2023-04-06T07:17:29;10.05;;;3.00;;
75054;SDS011;63636;44.746;10.488;2023-04-06T07:19:54;10.32;;;2.85;;
75054;SDS011;63636;44.746;10.488;2023-04-06T07:22:20;11.30;;;3.10;;
75054;SDS011;63636;44.746;10.488;2023-04-06T07:24:45;8.50;;;3.53;;
75054;SDS011;63636;44.746;10.488;2023-04-06T07:27:13;7.75;;;2.80;;
75054;SDS011;63636;44.746;10.488;2023-04-06T07:29:38;6.43;;;2.95;;
75054;SDS011;63636;44.746;10.488;2023-04-06T07:32:04;6.53;;;3.00;;
75054;SDS011;63636;44.746;10.488;2023-04-06T07:34:31;8.48;;;2.90;;
75054;SDS011;63636;44.746;10.488;2023-04-06T07:36:57;7.85;;;3.28;;
75054;SDS011;63636;44.746;10.488;2023-04-06T07:39:24;6.82;;;3.00;;
75054;SDS011;63636;44.746;10.488;2023-04-06T07:41:52;8.05;;;3.22;;
75054;SDS011;63636;44.746;10.488;2023-04-06T07:44:18;8.30;;;3.10;;
75054;SDS011;63636;44.746;10.488;2023-04-06T07:46:45;9.45;;;3.45;;
75054;SDS011;63636;44.746;10.488;2023-04-06T07:49:10;11.80;;;3.78;;
75054;SDS011;63636;44.746;10.488;2023-04-06T07:51:37;11.85;;;3.38;;
75054;SDS011;63636;44.746;10.488;2023-04-06T07:54:03;10.27;;;3.45;;
75054;SDS011;63636;44.746;10.488;2023-04-06T07:56:29;9.45;;;3.08;;
75054;SDS011;63636;44.746;10.488;2023-04-06T07:58:54;10.48;;;3.63;;
75054;SDS011;63636;44.746;10.488;2023-04-06T08:01:22;9.07;;;3.33;;
75054;SDS011;63636;44.746;10.488;2023-04-06T08:03:48;8.52;;;3.03;;
75054;SDS011;63636;44.746;10.488;2023-04-06T08:06:14;8.60;;;3.00;;
75054;SDS011;63636;44.746;10.488;2023-04-06T08:08:40;7.03;;;3.30;;
75054;SDS011;63636;44.746;10.488;2023-04-06T08:11:06;10.02;;;3.17;;
75054;SDS011;63636;44.746;10.488;2023-04-06T08:13:31;7.32;;;3.33;;
75054;SDS011;63636;44.746;10.488;2023-04-06T08:15:57;7.28;;;3.35;;
75054;SDS011;63636;44.746;10.488;2023-04-06T08:18:24;7.68;;;3.40;;
75054;SDS011;63636;44.746;10.488;2023-04-06T08:20:49;7.32;;;3.50;;
75054;SDS011;63636;44.746;10.488;2023-04-06T08:23:15;5.88;;;3.20;;
75054;SDS011;63636;44.746;10.488;2023-04-06T08:25:41;7.90;;;3.75;;
75054;SDS011;63636;44.746;10.488;2023-04-06T08:28:07;5.75;;;3.30;;
75054;SDS011;63636;44.746;10.488;2023-04-06T08:30:34;7.78;;;3.60;;
75054;SDS011;63636;44.746;10.488;2023-04-06T08:33:00;6.38;;;3.28;;
75054;SDS011;63636;44.746;10.488;2023-04-06T08:35:26;7.00;;;3.30;;
75054;SDS011;63636;44.746;10.488;2023-04-06T08:37:52;10.10;;;3.67;;
75054;SDS011;63636;44.746;10.488;2023-04-06T08:40:17;6.43;;;3.33;;
75054;SDS011;63636;44.746;10.488;2023-04-06T08:42:50;6.60;;;3.30;;
75054;SDS011;63636;44.746;10.488;2023-04-06T08:45:17;7.60;;;3.08;;
75054;SDS011;63636;44.746;10.488;2023-04-06T08:47:55;6.55;;;3.08;;
75054;SDS011;63636;44.746;10.488;2023-04-06T08:50:24;6.15;;;3.00;;
75054;SDS011;63636;44.746;10.488;2023-04-06T08:52:50;6.03;;;3.08;;
75054;SDS011;63636;44.746;10.488;2023-04-06T08:55:15;6.28;;;3.00;;
75054;SDS011;63636;44.746;10.488;2023-04-06T08:57:42;6.40;;;3.10;;
75054;SDS011;63636;44.746;10.488;2023-04-06T09:00:07;5.35;;;2.80;;
75054;SDS011;63636;44.746;10.488;2023-04-06T09:02:36;6.13;;;2.85;;
75054;SDS011;63636;44.746;10.488;2023-04-06T09:05:03;8.15;;;3.78;;
75054;SDS011;63636;44.746;10.488;2023-04-06T09:07:30;6.13;;;3.30;;
75054;SDS011;63636;44.746;10.488;2023-04-06T09:09:56;4.80;;;3.15;;
75054;SDS011;63636;44.746;10.488;2023-04-06T09:14:50;5.00;;;3.00;;
75054;SDS011;63636;44.746;10.488;2023-04-06T09:17:22;7.13;;;3.65;;
75054;SDS011;63636;44.746;10.488;2023-04-06T09:19:48;7.18;;;3.50;;
75054;SDS011;63636;44.746;10.488;2023-04-06T09:22:14;5.75;;;3.28;;
75054;SDS011;63636;44.746;10.488;2023-04-06T09:24:47;7.30;;;3.67;;
75054;SDS011;63636;44.746;10.488;2023-04-06T09:27:13;7.45;;;3.58;;
75054;SDS011;63636;44.746;10.488;2023-04-06T09:29:43;5.50;;;3.30;;
75054;SDS011;63636;44.746;10.488;2023-04-06T09:32:09;6.20;;;3.33;;
75054;SDS011;63636;44.746;10.488;2023-04-06T09:34:41;6.20;;;3.15;;
75054;SDS011;63636;44.746;10.488;2023-04-06T09:37:17;7.40;;;3.40;;
75054;SDS011;63636;44.746;10.488;2023-04-06T09:39:43;6.88;;;2.90;;
75054;SDS011;63636;44.746;10.488;2023-04-06T09:42:09;5.78;;;2.97;;
75054;SDS011;63636;44.746;10.488;2023-04-06T09:44:35;4.82;;;2.72;;
75054;SDS011;63636;44.746;10.488;2023-04-06T09:47:01;4.22;;;2.60;;
75054;SDS011;63636;44.746;10.488;2023-04-06T09:49:28;6.15;;;3.47;;
75054;SDS011;63636;44.746;10.488;2023-04-06T09:51:56;7.20;;;3.38;;
75054;SDS011;63636;44.746;10.488;2023-04-06T09:54:22;7.75;;;3.60;;
75054;SDS011;63636;44.746;10.488;2023-04-06T09:56:56;8.10;;;3.00;;
75054;SDS011;63636;44.746;10.488;2023-04-06T10:01:51;5.90;;;3.60;;
75054;SDS011;63636;44.746;10.488;2023-04-06T10:06:42;6.45;;;3.22;;
75054;SDS011;63636;44.746;10.488;2023-04-06T10:09:09;8.90;;;3.63;;
75054;SDS011;63636;44.746;10.488;2023-04-06T10:11:35;7.28;;;3.30;;
75054;SDS011;63636;44.746;10.488;2023-04-06T10:14:01;6.25;;;3.40;;
75054;SDS011;63636;44.746;10.488;2023-04-06T10:16:26;6.75;;;3.50;;
75054;SDS011;63636;44.746;10.488;2023-04-06T10:18:57;6.95;;;3.38;;
75054;SDS011;63636;44.746;10.488;2023-04-06T10:21:24;6.63;;;3.50;;
75054;SDS011;63636;44.746;10.488;2023-04-06T10:23:59;6.78;;;3.33;;
75054;SDS011;63636;44.746;10.488;2023-04-06T10:26:24;7.97;;;3.30;;
75054;SDS011;63636;44.746;10.488;2023-04-06T10:28:50;5.45;;;3.30;;
75054;SDS011;63636;44.746;10.488;2023-04-06T10:31:23;8.85;;;3.42;;
75054;SDS011;63636;44.746;10.488;2023-04-06T10:33:56;6.18;;;3.35;;
75054;SDS011;63636;44.746;10.488;2023-04-06T10:36:23;7.03;;;3.60;;
75054;SDS011;63636;44.746;10.488;2023-04-06T10:38:53;7.50;;;3.33;;
75054;SDS011;63636;44.746;10.488;2023-04-06T10:41:19;6.10;;;3.40;;
75054;SDS011;63636;44.746;10.488;2023-04-06T10:43:45;5.95;;;3.10;;
75054;SDS011;63636;44.746;10.488;2023-04-06T10:46:24;6.10;;;3.00;;
75054;SDS011;63636;44.746;10.488;2023-04-06T10:48:49;6.95;;;3.47;;
75054;SDS011;63636;44.746;10.488;2023-04-06T10:51:16;6.22;;;3.00;;
75054;SDS011;63636;44.746;10.488;2023-04-06T10:53:42;5.97;;;3.15;;
75054;SDS011;63636;44.746;10.488;2023-04-06T10:58:44;5.50;;;3.10;;
75054;SDS011;63636;44.746;10.488;2023-04-06T11:01:10;5.95;;;3.13;;
75054;SDS011;63636;44.746;10.488;2023-04-06T11:03:49;6.38;;;3.42;;
75054;SDS011;63636;44.746;10.488;2023-04-06T11:06:22;6.25;;;3.38;;
75054;SDS011;63636;44.746;10.488;2023-04-06T11:08:48;5.85;;;3.33;;
75054;SDS011;63636;44.746;10.488;2023-04-06T11:11:14;6.93;;;3.35;;
75054;SDS011;63636;44.746;10.488;2023-04-06T11:13:48;7.93;;;3.88;;
75054;SDS011;63636;44.746;10.488;2023-04-06T11:16:15;5.93;;;3.45;;
75054;SDS011;63636;44.746;10.488;2023-04-06T11:18:48;7.07;;;3.40;;
75054;SDS011;63636;44.746;10.488;2023-04-06T11:21:14;5.72;;;3.60;;
75054;SDS011;63636;44.746;10.488;2023-04-06T11:23:47;7.60;;;3.58;;
75054;SDS011;63636;44.746;10.488;2023-04-06T11:26:15;6.60;;;3.65;;
75054;SDS011;63636;44.746;10.488;2023-04-06T11:28:41;6.63;;;3.25;;
75054;SDS011;63636;44.746;10.488;2023-04-06T11:31:11;7.38;;;4.00;;
75054;SDS011;63636;44.746;10.488;2023-04-06T11:33:37;5.75;;;3.60;;
75054;SDS011;63636;44.746;10.488;2023-04-06T11:36:04;8.13;;;3.60;;
75054;SDS011;63636;44.746;10.488;2023-04-06T11:38:30;7.40;;;3.65;;
75054;SDS011;63636;44.746;10.488;2023-04-06T11:40:57;6.88;;;3.70;;
75054;SDS011;63636;44.746;10.488;2023-04-06T11:43:27;6.43;;;3.92;;
75054;SDS011;63636;44.746;10.488;2023-04-06T11:45:59;7.30;;;3.53;;
75054;SDS011;63636;44.746;10.488;2023-04-06T11:48:25;7.05;;;3.92;;
75054;SDS011;63636;44.746;10.488;2023-04-06T11:50:54;6.78;;;3.78;;
75054;SDS011;63636;44.746;10.488;2023-04-06T11:53:20;8.55;;;4.60;;
75054;SDS011;63636;44.746;10.488;2023-04-06T11:55:46;8.05;;;4.55;;
75054;SDS011;63636;44.746;10.488;2023-04-06T11:58:12;6.68;;;4.22;;
75054;SDS011;63636;44.746;10.488;2023-04-06T12:00:38;7.25;;;4.40;;
75054;SDS011;63636;44.746;10.488;2023-04-06T12:03:03;7.60;;;4.55;;
75054;SDS011;63636;44.746;10.488;2023-04-06T12:05:29;6.68;;;4.03;;
75054;SDS011;63636;44.746;10.488;2023-04-06T12:07:54;6.85;;;4.50;;
75054;SDS011;63636;44.746;10.488;2023-04-06T12:10:20;8.60;;;4.70;;
75054;SDS011;63636;44.746;10.488;2023-04-06T12:12:46;8.75;;;5.15;;
75054;SDS011;63636;44.746;10.488;2023-04-06T12:15:12;7.82;;;4.60;;
75054;SDS011;63636;44.746;10.488;2023-04-06T12:17:37;8.68;;;4.95;;
75054;SDS011;63636;44.746;10.488;2023-04-06T12:20:03;8.38;;;4.55;;
75054;SDS011;63636;44.746;10.488;2023-04-06T12:22:29;8.13;;;4.60;;
75054;SDS011;63636;44.746;10.488;2023-04-06T12:24:54;8.45;;;4.72;;
75054;SDS011;63636;44.746;10.488;2023-04-06T12:27:20;9.25;;;5.07;;
75054;SDS011;63636;44.746;10.488;2023-04-06T12:29:46;7.75;;;4.90;;
75054;SDS011;63636;44.746;10.488;2023-04-06T12:32:12;8.82;;;4.82;;
75054;SDS011;63636;44.746;10.488;2023-04-06T12:34:38;7.80;;;5.20;;
75054;SDS011;63636;44.746;10.488;2023-04-06T12:37:03;8.82;;;4.93;;
75054;SDS011;63636;44.746;10.488;2023-04-06T12:39:29;7.75;;;4.88;;
75054;SDS011;63636;44.746;10.488;2023-04-06T12:41:55;7.65;;;4.72;;
75054;SDS011;63636;44.746;10.488;2023-04-06T12:44:21;7.82;;;4.70;;
75054;SDS011;63636;44.746;10.488;2023-04-06T12:46:47;7.90;;;5.20;;
75054;SDS011;63636;44.746;10.488;2023-04-06T12:49:12;8.55;;;5.20;;
75054;SDS011;63636;44.746;10.488;2023-04-06T12:51:38;17.45;;;4.88;;
75054;SDS011;63636;44.746;10.488;2023-04-06T12:54:03;11.35;;;5.80;;
75054;SDS011;63636;44.746;10.488;2023-04-06T12:56:29;8.00;;;5.32;;
75054;SDS011;63636;44.746;10.488;2023-04-06T12:58:56;8.65;;;5.28;;
75054;SDS011;63636;44.746;10.488;2023-04-06T13:01:21;9.93;;;5.40;;
75054;SDS011;63636;44.746;10.488;2023-04-06T13:03:47;8.35;;;5.30;;
75054;SDS011;63636;44.746;10.488;2023-04-06T13:06:12;9.98;;;5.22;;
75054;SDS011;63636;44.746;10.488;2023-04-06T13:08:39;8.90;;;4.68;;
75054;SDS011;63636;44.746;10.488;2023-04-06T13:11:05;8.07;;;4.53;;
75054;SDS011;63636;44.746;10.488;2023-04-06T13:13:33;7.57;;;4.38;;
75054;SDS011;63636;44.746;10.488;2023-04-06T13:16:00;6.65;;;4.20;;
75054;SDS011;63636;44.746;10.488;2023-04-06T13:18:27;8.38;;;4.80;;
75054;SDS011;63636;44.746;10.488;2023-04-06T13:20:54;8.07;;;4.57;;
75054;SDS011;63636;44.746;10.488;2023-04-06T13:23:21;8.48;;;5.22;;
75054;SDS011;63636;44.746;10.488;2023-04-06T13:25:47;7.60;;;4.88;;
75054;SDS011;63636;44.746;10.488;2023-04-06T13:28:13;7.53;;;4.47;;
75054;SDS011;63636;44.746;10.488;2023-04-06T13:30:38;7.93;;;4.85;;
75054;SDS011;63636;44.746;10.488;2023-04-06T13:33:04;7.63;;;4.53;;
75054;SDS011;63636;44.746;10.488;2023-04-06T13:35:31;7.53;;;4.53;;
75054;SDS011;63636;44.746;10.488;2023-04-06T13:37:57;7.82;;;4.85;;
75054;SDS011;63636;44.746;10.488;2023-04-06T13:40:23;7.53;;;4.97;;
75054;SDS011;63636;44.746;10.488;2023-04-06T13:42:48;8.07;;;4.88;;
75054;SDS011;63636;44.746;10.488;2023-04-06T13:45:14;7.13;;;4.70;;
75054;SDS011;63636;44.746;10.488;2023-04-06T13:47:40;7.82;;;4.25;;
75054;SDS011;63636;44.746;10.488;2023-04-06T13:50:06;7.03;;;4.32;;
75054;SDS011;63636;44.746;10.488;2023-04-06T13:52:32;7.90;;;4.78;;
75054;SDS011;63636;44.746;10.488;2023-04-06T13:54:57;7.82;;;4.40;;
75054;SDS011;63636;44.746;10.488;2023-04-06T13:57:23;7.28;;;4.50;;
75054;SDS011;63636;44.746;10.488;2023-04-06T14:00:04;8.43;;;5.03;;
75054;SDS011;63636;44.746;10.488;2023-04-06T14:02:38;8.18;;;4.55;;
75054;SDS011;63636;44.746;10.488;2023-04-06T14:05:03;8.02;;;4.95;;
75054;SDS011;63636;44.746;10.488;2023-04-06T14:07:29;8.07;;;4.57;;
75054;SDS011;63636;44.746;10.488;2023-04-06T14:09:56;8.52;;;4.88;;
75054;SDS011;63636;44.746;10.488;2023-04-06T14:12:21;7.78;;;4.60;;
75054;SDS011;63636;44.746;10.488;2023-04-06T14:14:47;9.63;;;4.82;;
75054;SDS011;63636;44.746;10.488;2023-04-06T14:17:13;8.13;;;4.60;;
75054;SDS011;63636;44.746;10.488;2023-04-06T14:19:38;8.40;;;5.07;;
75054;SDS011;63636;44.746;10.488;2023-04-06T14:22:04;7.50;;;4.90;;
75054;SDS011;63636;44.746;10.488;2023-04-06T14:24:29;7.40;;;4.50;;
75054;SDS011;63636;44.746;10.488;2023-04-06T14:26:56;8.15;;;4.60;;
75054;SDS011;63636;44.746;10.488;2023-04-06T14:29:22;8.43;;;5.10;;
75054;SDS011;63636;44.746;10.488;2023-04-06T14:31:48;8.05;;;5.05;;
75054;SDS011;63636;44.746;10.488;2023-04-06T14:34:14;7.88;;;5.10;;
75054;SDS011;63636;44.746;10.488;2023-04-06T14:36:41;10.18;;;5.00;;
75054;SDS011;63636;44.746;10.488;2023-04-06T14:39:06;8.73;;;4.63;;
75054;SDS011;63636;44.746;10.488;2023-04-06T14:41:33;7.53;;;4.50;;
75054;SDS011;63636;44.746;10.488;2023-04-06T14:43:59;8.73;;;5.07;;
75054;SDS011;63636;44.746;10.488;2023-04-06T14:46:24;8.30;;;5.20;;
75054;SDS011;63636;44.746;10.488;2023-04-06T14:48:50;8.75;;;5.10;;
75054;SDS011;63636;44.746;10.488;2023-04-06T14:51:16;8.35;;;4.97;;
75054;SDS011;63636;44.746;10.488;2023-04-06T14:53:42;8.63;;;4.95;;
75054;SDS011;63636;44.746;10.488;2023-04-06T14:56:08;8.30;;;4.80;;
75054;SDS011;63636;44.746;10.488;2023-04-06T14:58:33;8.40;;;4.97;;
75054;SDS011;63636;44.746;10.488;2023-04-06T15:01:00;8.70;;;5.20;;
75054;SDS011;63636;44.746;10.488;2023-04-06T15:03:25;7.75;;;4.72;;
75054;SDS011;63636;44.746;10.488;2023-04-06T15:05:52;8.10;;;5.18;;